sensor_id;sensor_type;location;lat;lon;timestamp;pressure;altitude;pressure_sealevel;temperature;humidity
10060;BME280;5069;49.306;8.636;2022-08-19T00:01:10;100018.47;;;22.74;73.00
10060;BME280;5069;49.306;8.636;2022-08-19T00:04:12;100012.31;;;22.62;73.69
10060;BME280;5069;49.306;8.636;2022-08-19T00:07:14;100000.72;;;22.61;74.33
10060;BME280;5069;49.306;8.636;2022-08-19T00:10:17;99995.09;;;22.64;73.92
10060;BME280;5069;49.306;8.636;2022-08-19T00:13:19;99998.00;;;22.82;72.75
10060;BME280;5069;49.306;8.636;2022-08-19T00:16:21;100000.25;;;22.87;72.21
10060;BME280;5069;49.306;8.636;2022-08-19T00:19:26;99994.28;;;22.74;73.07
10060;BME280;5069;49.306;8.636;2022-08-19T00:22:28;100004.81;;;22.56;73.64
10060;BME280;5069;49.306;8.636;2022-08-19T00:25:29;99992.22;;;22.47;74.37
10060;BME280;5069;49.306;8.636;2022-08-19T00:28:31;100000.25;;;22.37;75.78
10060;BME280;5069;49.306;8.636;2022-08-19T00:31:36;99998.84;;;22.43;75.82
10060;BME280;5069;49.306;8.636;2022-08-19T00:34:37;99993.47;;;22.43;75.51
10060;BME280;5069;49.306;8.636;2022-08-19T00:37:39;99985.72;;;22.49;74.87
10060;BME280;5069;49.306;8.636;2022-08-19T00:40:44;99976.41;;;22.53;75.26
10060;BME280;5069;49.306;8.636;2022-08-19T00:44:13;99983.84;;;22.40;75.57
10060;BME280;5069;49.306;8.636;2022-08-19T00:47:15;99994.78;;;22.48;74.78
10060;BME280;5069;49.306;8.636;2022-08-19T00:50:20;99999.25;;;22.38;75.83
10060;BME280;5069;49.306;8.636;2022-08-19T00:53:26;99997.28;;;22.40;76.01
10060;BME280;5069;49.306;8.636;2022-08-19T00:56:28;100002.09;;;22.46;75.52
10060;BME280;5069;49.306;8.636;2022-08-19T00:59:33;100002.09;;;22.46;75.37
10060;BME280;5069;49.306;8.636;2022-08-19T01:02:55;99987.69;;;22.47;76.19
10060;BME280;5069;49.306;8.636;2022-08-19T01:05:58;99976.22;;;22.45;75.78
10060;BME280;5069;49.306;8.636;2022-08-19T01:09:01;99972.84;;;22.43;76.23
10060;BME280;5069;49.306;8.636;2022-08-19T01:12:02;99974.50;;;22.35;75.94
10060;BME280;5069;49.306;8.636;2022-08-19T01:15:08;99980.38;;;22.19;76.84
10060;BME280;5069;49.306;8.636;2022-08-19T01:18:13;99987.72;;;22.17;76.90
10060;BME280;5069;49.306;8.636;2022-08-19T01:21:24;99986.19;;;22.24;77.05
10060;BME280;5069;49.306;8.636;2022-08-19T01:24:27;99992.97;;;22.28;77.18
10060;BME280;5069;49.306;8.636;2022-08-19T01:27:40;99987.47;;;22.20;77.73
10060;BME280;5069;49.306;8.636;2022-08-19T01:30:45;99994.13;;;22.25;77.29
10060;BME280;5069;49.306;8.636;2022-08-19T01:33:54;99993.41;;;22.33;76.77
10060;BME280;5069;49.306;8.636;2022-08-19T01:36:56;99988.22;;;22.41;75.92
10060;BME280;5069;49.306;8.636;2022-08-19T01:39:57;99986.53;;;22.40;76.66
10060;BME280;5069;49.306;8.636;2022-08-19T01:42:59;99972.22;;;22.30;77.07
10060;BME280;5069;49.306;8.636;2022-08-19T01:46:01;99969.78;;;22.17;77.44
10060;BME280;5069;49.306;8.636;2022-08-19T01:49:05;99989.59;;;22.26;77.13
10060;BME280;5069;49.306;8.636;2022-08-19T01:52:07;99997.56;;;22.37;76.62
10060;BME280;5069;49.306;8.636;2022-08-19T01:55:12;99996.72;;;22.37;76.80
10060;BME280;5069;49.306;8.636;2022-08-19T01:58:21;100007.16;;;22.40;76.92
10060;BME280;5069;49.306;8.636;2022-08-19T02:01:24;100005.75;;;22.45;76.63
10060;BME280;5069;49.306;8.636;2022-08-19T02:04:31;100016.94;;;22.50;76.60
10060;BME280;5069;49.306;8.636;2022-08-19T02:07:33;100014.84;;;22.54;76.44
10060;BME280;5069;49.306;8.636;2022-08-19T02:10:39;100013.72;;;22.56;76.12
10060;BME280;5069;49.306;8.636;2022-08-19T02:13:41;100015.56;;;22.56;75.87
10060;BME280;5069;49.306;8.636;2022-08-19T02:16:43;100007.47;;;22.46;76.35
10060;BME280;5069;49.306;8.636;2022-08-19T02:19:44;100007.53;;;22.25;77.42
10060;BME280;5069;49.306;8.636;2022-08-19T02:22:46;100006.59;;;22.06;78.74
10060;BME280;5069;49.306;8.636;2022-08-19T02:25:48;100004.50;;;21.89;79.97
10060;BME280;5069;49.306;8.636;2022-08-19T02:28:49;100008.09;;;21.78;80.68
10060;BME280;5069;49.306;8.636;2022-08-19T02:31:51;100005.38;;;21.68;81.76
10060;BME280;5069;49.306;8.636;2022-08-19T02:34:52;99999.56;;;21.63;81.68
10060;BME280;5069;49.306;8.636;2022-08-19T02:37:54;99998.44;;;21.87;80.59
10060;BME280;5069;49.306;8.636;2022-08-19T02:41:17;100002.34;;;21.82;80.60
10060;BME280;5069;49.306;8.636;2022-08-19T02:44:19;99992.59;;;21.81;81.09
10060;BME280;5069;49.306;8.636;2022-08-19T02:47:31;99997.50;;;21.76;81.35
10060;BME280;5069;49.306;8.636;2022-08-19T02:50:33;99998.59;;;21.64;82.26
10060;BME280;5069;49.306;8.636;2022-08-19T02:53:34;99990.84;;;21.50;83.31
10060;BME280;5069;49.306;8.636;2022-08-19T02:56:38;99981.50;;;21.44;83.82
10060;BME280;5069;49.306;8.636;2022-08-19T02:59:39;99984.31;;;21.43;83.65
10060;BME280;5069;49.306;8.636;2022-08-19T03:02:41;99978.59;;;21.36;84.40
10060;BME280;5069;49.306;8.636;2022-08-19T03:05:43;99974.38;;;21.34;84.41
10060;BME280;5069;49.306;8.636;2022-08-19T03:08:57;99981.81;;;21.51;83.20
10060;BME280;5069;49.306;8.636;2022-08-19T03:11:59;99980.44;;;21.57;82.84
10060;BME280;5069;49.306;8.636;2022-08-19T03:15:00;99976.72;;;21.48;83.13
10060;BME280;5069;49.306;8.636;2022-08-19T03:18:02;99975.06;;;21.36;83.63
10060;BME280;5069;49.306;8.636;2022-08-19T03:21:04;99974.47;;;21.53;82.55
10060;BME280;5069;49.306;8.636;2022-08-19T03:24:07;99984.75;;;21.48;82.74
10060;BME280;5069;49.306;8.636;2022-08-19T03:27:09;99988.66;;;21.65;81.40
10060;BME280;5069;49.306;8.636;2022-08-19T03:30:11;100010.22;;;21.74;80.92
10060;BME280;5069;49.306;8.636;2022-08-19T03:33:13;100011.00;;;21.65;81.63
10060;BME280;5069;49.306;8.636;2022-08-19T03:36:28;100008.13;;;21.57;82.05
10060;BME280;5069;49.306;8.636;2022-08-19T03:39:30;100014.13;;;21.50;82.55
10060;BME280;5069;49.306;8.636;2022-08-19T03:42:32;100006.25;;;21.37;83.16
10060;BME280;5069;49.306;8.636;2022-08-19T03:46:11;100000.06;;;21.36;83.80
10060;BME280;5069;49.306;8.636;2022-08-19T03:49:13;100009.28;;;21.23;84.10
10060;BME280;5069;49.306;8.636;2022-08-19T03:52:15;100005.41;;;21.16;85.05
10060;BME280;5069;49.306;8.636;2022-08-19T03:55:17;99999.94;;;21.06;85.60
10060;BME280;5069;49.306;8.636;2022-08-19T03:58:20;100003.13;;;21.00;86.22
10060;BME280;5069;49.306;8.636;2022-08-19T04:01:24;100006.13;;;21.07;85.81
10060;BME280;5069;49.306;8.636;2022-08-19T04:04:41;99993.19;;;21.23;84.93
10060;BME280;5069;49.306;8.636;2022-08-19T04:07:44;100004.56;;;21.36;83.68
10060;BME280;5069;49.306;8.636;2022-08-19T04:10:46;100009.81;;;21.37;84.28
10060;BME280;5069;49.306;8.636;2022-08-19T04:13:50;100006.22;;;21.48;82.85
10060;BME280;5069;49.306;8.636;2022-08-19T04:16:52;100006.94;;;21.50;82.60
10060;BME280;5069;49.306;8.636;2022-08-19T04:19:54;100010.13;;;21.44;83.60
10060;BME280;5069;49.306;8.636;2022-08-19T04:22:56;100010.88;;;21.46;83.55
10060;BME280;5069;49.306;8.636;2022-08-19T04:25:58;100024.00;;;21.49;83.74
10060;BME280;5069;49.306;8.636;2022-08-19T04:29:02;100027.28;;;21.53;83.48
10060;BME280;5069;49.306;8.636;2022-08-19T04:32:04;100025.19;;;21.56;83.50
10060;BME280;5069;49.306;8.636;2022-08-19T04:35:10;100018.06;;;21.46;83.89
10060;BME280;5069;49.306;8.636;2022-08-19T04:38:20;100005.56;;;21.35;84.85
10060;BME280;5069;49.306;8.636;2022-08-19T04:41:24;100000.25;;;21.24;85.67
10060;BME280;5069;49.306;8.636;2022-08-19T04:44:44;100004.88;;;21.22;85.52
10060;BME280;5069;49.306;8.636;2022-08-19T04:47:46;100015.81;;;21.30;84.66
10060;BME280;5069;49.306;8.636;2022-08-19T04:51:10;100016.13;;;21.36;84.73
10060;BME280;5069;49.306;8.636;2022-08-19T04:54:16;100022.34;;;21.37;84.75
10060;BME280;5069;49.306;8.636;2022-08-19T04:57:37;100012.47;;;21.37;84.78
10060;BME280;5069;49.306;8.636;2022-08-19T05:00:41;100020.97;;;21.42;84.58
10060;BME280;5069;49.306;8.636;2022-08-19T05:03:42;100013.94;;;21.41;83.93
10060;BME280;5069;49.306;8.636;2022-08-19T05:06:44;100018.19;;;21.44;83.91
10060;BME280;5069;49.306;8.636;2022-08-19T05:09:46;100030.28;;;21.59;83.01
10060;BME280;5069;49.306;8.636;2022-08-19T05:12:59;100032.06;;;21.49;83.35
10060;BME280;5069;49.306;8.636;2022-08-19T05:16:00;100037.28;;;21.30;85.05
10060;BME280;5069;49.306;8.636;2022-08-19T05:19:02;100042.63;;;21.30;85.14
10060;BME280;5069;49.306;8.636;2022-08-19T05:22:22;100033.34;;;21.34;84.85
10060;BME280;5069;49.306;8.636;2022-08-19T05:25:39;100036.47;;;21.18;86.39
10060;BME280;5069;49.306;8.636;2022-08-19T05:28:41;100040.59;;;21.22;86.43
10060;BME280;5069;49.306;8.636;2022-08-19T05:31:44;100053.16;;;21.42;84.94
10060;BME280;5069;49.306;8.636;2022-08-19T05:34:46;100056.41;;;21.57;84.05
10060;BME280;5069;49.306;8.636;2022-08-19T05:37:47;100057.50;;;21.55;83.70
10060;BME280;5069;49.306;8.636;2022-08-19T05:40:55;100061.09;;;21.44;84.08
10060;BME280;5069;49.306;8.636;2022-08-19T05:43:57;100069.13;;;21.44;84.40
10060;BME280;5069;49.306;8.636;2022-08-19T05:47:01;100079.84;;;21.44;84.77
10060;BME280;5069;49.306;8.636;2022-08-19T05:50:04;100086.81;;;21.47;84.20
10060;BME280;5069;49.306;8.636;2022-08-19T05:53:06;100091.06;;;21.49;84.36
10060;BME280;5069;49.306;8.636;2022-08-19T05:56:11;100087.56;;;21.69;82.62
10060;BME280;5069;49.306;8.636;2022-08-19T05:59:14;100094.97;;;21.45;83.94
10060;BME280;5069;49.306;8.636;2022-08-19T06:02:19;100100.75;;;21.61;83.61
10060;BME280;5069;49.306;8.636;2022-08-19T06:05:20;100102.59;;;21.81;82.02
10060;BME280;5069;49.306;8.636;2022-08-19T06:08:22;100117.06;;;21.90;80.93
10060;BME280;5069;49.306;8.636;2022-08-19T06:11:44;100116.94;;;22.03;79.61
10060;BME280;5069;49.306;8.636;2022-08-19T06:14:47;100116.72;;;21.95;79.90
10060;BME280;5069;49.306;8.636;2022-08-19T06:18:01;100117.03;;;21.80;81.47
10060;BME280;5069;49.306;8.636;2022-08-19T06:21:03;100113.78;;;21.98;79.99
10060;BME280;5069;49.306;8.636;2022-08-19T06:24:07;100120.59;;;22.02;79.60
10060;BME280;5069;49.306;8.636;2022-08-19T06:27:09;100120.25;;;21.95;79.09
10060;BME280;5069;49.306;8.636;2022-08-19T06:30:11;100125.72;;;21.94;80.04
10060;BME280;5069;49.306;8.636;2022-08-19T06:33:13;100128.63;;;22.02;79.30
10060;BME280;5069;49.306;8.636;2022-08-19T06:36:22;100122.81;;;21.97;80.16
10060;BME280;5069;49.306;8.636;2022-08-19T06:39:31;100129.75;;;22.20;78.47
10060;BME280;5069;49.306;8.636;2022-08-19T06:42:34;100133.75;;;22.25;78.73
10060;BME280;5069;49.306;8.636;2022-08-19T06:45:37;100137.81;;;22.20;79.24
10060;BME280;5069;49.306;8.636;2022-08-19T06:48:40;100134.28;;;22.19;78.98
10060;BME280;5069;49.306;8.636;2022-08-19T06:51:47;100135.81;;;22.22;79.00
10060;BME280;5069;49.306;8.636;2022-08-19T06:54:49;100140.81;;;22.27;78.31
10060;BME280;5069;49.306;8.636;2022-08-19T06:57:56;100135.13;;;22.20;77.97
10060;BME280;5069;49.306;8.636;2022-08-19T07:01:02;100134.59;;;22.26;77.46
10060;BME280;5069;49.306;8.636;2022-08-19T07:04:09;100135.75;;;22.33;77.09
10060;BME280;5069;49.306;8.636;2022-08-19T07:07:14;100128.63;;;22.43;77.08
10060;BME280;5069;49.306;8.636;2022-08-19T07:10:21;100126.22;;;22.50;76.21
10060;BME280;5069;49.306;8.636;2022-08-19T07:13:26;100122.88;;;22.57;75.88
10060;BME280;5069;49.306;8.636;2022-08-19T07:16:28;100120.19;;;22.57;74.99
10060;BME280;5069;49.306;8.636;2022-08-19T07:19:30;100120.38;;;22.65;75.53
10060;BME280;5069;49.306;8.636;2022-08-19T07:22:34;100116.78;;;22.76;74.50
10060;BME280;5069;49.306;8.636;2022-08-19T07:25:37;100118.50;;;22.87;74.21
10060;BME280;5069;49.306;8.636;2022-08-19T07:28:38;100122.78;;;22.99;73.12
10060;BME280;5069;49.306;8.636;2022-08-19T07:31:52;100118.22;;;22.90;73.70
10060;BME280;5069;49.306;8.636;2022-08-19T07:34:58;100118.94;;;22.82;73.96
10060;BME280;5069;49.306;8.636;2022-08-19T07:38:02;100118.78;;;22.84;74.14
10060;BME280;5069;49.306;8.636;2022-08-19T07:41:04;100122.50;;;23.02;73.24
10060;BME280;5069;49.306;8.636;2022-08-19T07:44:07;100129.22;;;23.17;72.68
10060;BME280;5069;49.306;8.636;2022-08-19T07:47:09;100117.31;;;23.20;72.20
10060;BME280;5069;49.306;8.636;2022-08-19T07:50:30;100122.38;;;23.13;72.46
10060;BME280;5069;49.306;8.636;2022-08-19T07:53:32;100127.63;;;23.15;72.09
10060;BME280;5069;49.306;8.636;2022-08-19T07:56:39;100128.91;;;23.20;72.24
10060;BME280;5069;49.306;8.636;2022-08-19T07:59:41;100129.34;;;23.25;71.89
10060;BME280;5069;49.306;8.636;2022-08-19T08:02:42;100135.34;;;23.38;71.75
10060;BME280;5069;49.306;8.636;2022-08-19T08:05:44;100125.34;;;23.50;71.09
10060;BME280;5069;49.306;8.636;2022-08-19T08:09:07;100128.81;;;23.41;70.78
10060;BME280;5069;49.306;8.636;2022-08-19T08:12:16;100126.44;;;23.47;70.70
10060;BME280;5069;49.306;8.636;2022-08-19T08:15:35;100129.44;;;23.54;69.74
10060;BME280;5069;49.306;8.636;2022-08-19T08:18:43;100137.38;;;23.65;69.65
10060;BME280;5069;49.306;8.636;2022-08-19T08:21:52;100131.00;;;23.66;69.53
10060;BME280;5069;49.306;8.636;2022-08-19T08:24:54;100127.75;;;23.63;69.83
10060;BME280;5069;49.306;8.636;2022-08-19T08:27:59;100125.78;;;23.74;69.92
10060;BME280;5069;49.306;8.636;2022-08-19T08:31:01;100129.56;;;24.01;68.32
10060;BME280;5069;49.306;8.636;2022-08-19T08:34:10;100140.19;;;24.21;66.55
10060;BME280;5069;49.306;8.636;2022-08-19T08:37:12;100147.53;;;24.48;65.74
10060;BME280;5069;49.306;8.636;2022-08-19T08:40:42;100151.75;;;24.60;65.29
10060;BME280;5069;49.306;8.636;2022-08-19T08:43:45;100141.38;;;24.65;65.61
10060;BME280;5069;49.306;8.636;2022-08-19T08:47:22;100143.03;;;24.76;64.54
10060;BME280;5069;49.306;8.636;2022-08-19T08:50:37;100143.06;;;24.57;65.26
10060;BME280;5069;49.306;8.636;2022-08-19T08:53:41;100132.69;;;24.72;64.08
10060;BME280;5069;49.306;8.636;2022-08-19T08:56:44;100133.50;;;24.82;63.50
10060;BME280;5069;49.306;8.636;2022-08-19T08:59:48;100133.66;;;25.07;62.04
10060;BME280;5069;49.306;8.636;2022-08-19T09:02:53;100137.56;;;25.23;61.47
10060;BME280;5069;49.306;8.636;2022-08-19T09:06:06;100130.53;;;25.57;60.53
10060;BME280;5069;49.306;8.636;2022-08-19T09:09:20;100142.44;;;25.55;59.41
10060;BME280;5069;49.306;8.636;2022-08-19T09:15:52;100128.19;;;25.44;58.40
10060;BME280;5069;49.306;8.636;2022-08-19T09:18:57;100131.41;;;25.48;58.34
10060;BME280;5069;49.306;8.636;2022-08-19T09:22:02;100118.72;;;25.58;57.62
10060;BME280;5069;49.306;8.636;2022-08-19T09:25:08;100126.59;;;25.51;57.04
10060;BME280;5069;49.306;8.636;2022-08-19T09:28:09;100120.53;;;25.67;56.33
10060;BME280;5069;49.306;8.636;2022-08-19T09:31:25;100115.56;;;25.80;56.51
10060;BME280;5069;49.306;8.636;2022-08-19T09:34:27;100112.44;;;26.11;55.20
10060;BME280;5069;49.306;8.636;2022-08-19T09:37:30;100120.16;;;26.06;54.78
10060;BME280;5069;49.306;8.636;2022-08-19T09:40:33;100127.50;;;25.96;54.76
10060;BME280;5069;49.306;8.636;2022-08-19T09:43:39;100117.84;;;25.93;55.29
10060;BME280;5069;49.306;8.636;2022-08-19T09:46:45;100117.19;;;26.17;54.16
10060;BME280;5069;49.306;8.636;2022-08-19T09:49:48;100116.50;;;26.15;53.30
10060;BME280;5069;49.306;8.636;2022-08-19T09:52:50;100120.84;;;26.08;54.48
10060;BME280;5069;49.306;8.636;2022-08-19T09:55:57;100124.66;;;25.97;54.55
10060;BME280;5069;49.306;8.636;2022-08-19T09:59:00;100120.94;;;25.80;54.47
10060;BME280;5069;49.306;8.636;2022-08-19T10:02:01;100122.38;;;26.10;53.98
10060;BME280;5069;49.306;8.636;2022-08-19T10:05:11;100107.44;;;26.42;53.04
10060;BME280;5069;49.306;8.636;2022-08-19T10:08:35;100122.22;;;26.29;52.62
10060;BME280;5069;49.306;8.636;2022-08-19T10:11:40;100120.28;;;26.22;53.16
10060;BME280;5069;49.306;8.636;2022-08-19T10:14:52;100123.19;;;26.46;50.98
10060;BME280;5069;49.306;8.636;2022-08-19T10:17:55;100125.94;;;26.28;51.39
10060;BME280;5069;49.306;8.636;2022-08-19T10:21:14;100123.47;;;26.17;52.04
10060;BME280;5069;49.306;8.636;2022-08-19T10:24:16;100126.94;;;26.10;51.51
10060;BME280;5069;49.306;8.636;2022-08-19T10:27:18;100125.22;;;26.09;51.60
10060;BME280;5069;49.306;8.636;2022-08-19T10:30:20;100114.06;;;26.47;50.22
10060;BME280;5069;49.306;8.636;2022-08-19T10:33:25;100119.63;;;26.80;49.64
10060;BME280;5069;49.306;8.636;2022-08-19T10:36:46;100123.03;;;26.82;49.64
10060;BME280;5069;49.306;8.636;2022-08-19T10:39:57;100119.97;;;27.19;48.76
10060;BME280;5069;49.306;8.636;2022-08-19T10:42:58;100117.44;;;27.17;48.90
10060;BME280;5069;49.306;8.636;2022-08-19T10:45:59;100115.22;;;27.12;48.95
10060;BME280;5069;49.306;8.636;2022-08-19T10:49:03;100115.81;;;27.32;48.11
10060;BME280;5069;49.306;8.636;2022-08-19T10:52:05;100112.31;;;27.06;48.58
10060;BME280;5069;49.306;8.636;2022-08-19T10:55:39;100111.34;;;27.15;48.66
10060;BME280;5069;49.306;8.636;2022-08-19T10:58:59;100092.63;;;27.38;48.46
10060;BME280;5069;49.306;8.636;2022-08-19T11:02:02;100087.09;;;27.64;48.08
10060;BME280;5069;49.306;8.636;2022-08-19T11:05:04;100082.22;;;27.51;48.16
10060;BME280;5069;49.306;8.636;2022-08-19T11:08:13;100086.69;;;27.34;45.75
10060;BME280;5069;49.306;8.636;2022-08-19T11:11:24;100069.44;;;27.35;45.89
10060;BME280;5069;49.306;8.636;2022-08-19T12:58:09;100081.19;;;27.92;42.14
10060;BME280;5069;49.306;8.636;2022-08-19T13:01:13;100075.25;;;28.05;41.50
10060;BME280;5069;49.306;8.636;2022-08-19T13:09:43;100070.34;;;28.80;39.99
10060;BME280;5069;49.306;8.636;2022-08-19T13:12:46;100058.97;;;29.15;39.56
10060;BME280;5069;49.306;8.636;2022-08-19T13:20:42;100052.19;;;28.33;40.14
10060;BME280;5069;49.306;8.636;2022-08-19T13:23:53;100065.31;;;28.61;39.60
10060;BME280;5069;49.306;8.636;2022-08-19T13:26:55;100050.97;;;28.91;36.75
10060;BME280;5069;49.306;8.636;2022-08-19T13:29:56;100041.97;;;29.22;36.82
10060;BME280;5069;49.306;8.636;2022-08-19T13:37:46;100042.34;;;29.64;35.78
10060;BME280;5069;49.306;8.636;2022-08-19T13:40:50;100042.28;;;29.72;35.90
10060;BME280;5069;49.306;8.636;2022-08-19T13:43:53;100035.44;;;30.14;34.86
10060;BME280;5069;49.306;8.636;2022-08-19T13:47:00;100038.25;;;30.20;35.36
10060;BME280;5069;49.306;8.636;2022-08-19T13:50:05;100029.38;;;30.12;35.08
10060;BME280;5069;49.306;8.636;2022-08-19T13:53:09;100035.91;;;30.03;34.85
10060;BME280;5069;49.306;8.636;2022-08-19T13:56:16;100026.06;;;29.64;34.66
10060;BME280;5069;49.306;8.636;2022-08-19T13:59:17;100039.31;;;29.44;33.99
10060;BME280;5069;49.306;8.636;2022-08-19T14:02:19;100035.00;;;29.50;34.42
10060;BME280;5069;49.306;8.636;2022-08-19T14:05:21;100020.31;;;29.59;34.49
10060;BME280;5069;49.306;8.636;2022-08-19T14:08:23;100017.84;;;29.87;34.42
10060;BME280;5069;49.306;8.636;2022-08-19T14:11:25;100018.41;;;29.82;34.14
10060;BME280;5069;49.306;8.636;2022-08-19T14:14:27;100016.31;;;29.92;34.56
10060;BME280;5069;49.306;8.636;2022-08-19T14:17:29;100014.25;;;29.94;34.50
10060;BME280;5069;49.306;8.636;2022-08-19T14:20:34;100018.75;;;30.02;34.14
10060;BME280;5069;49.306;8.636;2022-08-19T14:23:36;100010.91;;;30.07;33.46
10060;BME280;5069;49.306;8.636;2022-08-19T14:26:37;100009.69;;;30.39;33.30
10060;BME280;5069;49.306;8.636;2022-08-19T14:29:39;100017.28;;;30.29;33.85
10060;BME280;5069;49.306;8.636;2022-08-19T14:32:41;100020.47;;;30.32;32.54
10060;BME280;5069;49.306;8.636;2022-08-19T14:35:44;100015.78;;;30.41;32.99
10060;BME280;5069;49.306;8.636;2022-08-19T14:38:46;100006.88;;;30.62;32.31
10060;BME280;5069;49.306;8.636;2022-08-19T14:41:47;100012.63;;;30.52;32.79
10060;BME280;5069;49.306;8.636;2022-08-19T14:44:49;100014.00;;;30.48;32.29
10060;BME280;5069;49.306;8.636;2022-08-19T14:47:50;100011.47;;;30.47;32.44
10060;BME280;5069;49.306;8.636;2022-08-19T14:50:52;100012.97;;;30.49;32.14
10060;BME280;5069;49.306;8.636;2022-08-19T14:53:54;100010.53;;;30.54;32.09
10060;BME280;5069;49.306;8.636;2022-08-19T14:56:55;99991.00;;;30.36;32.39
10060;BME280;5069;49.306;8.636;2022-08-19T14:59:58;99998.97;;;30.08;33.05
10060;BME280;5069;49.306;8.636;2022-08-19T15:03:00;100006.69;;;29.82;34.03
10060;BME280;5069;49.306;8.636;2022-08-19T15:06:03;99996.94;;;30.10;33.17
10060;BME280;5069;49.306;8.636;2022-08-19T15:09:06;99998.06;;;30.16;33.29
10060;BME280;5069;49.306;8.636;2022-08-19T15:12:07;100002.28;;;30.18;33.00
10060;BME280;5069;49.306;8.636;2022-08-19T15:15:13;100010.81;;;30.01;33.39
10060;BME280;5069;49.306;8.636;2022-08-19T15:18:14;100004.41;;;29.93;33.30
10060;BME280;5069;49.306;8.636;2022-08-19T15:21:16;100003.50;;;30.16;32.89
10060;BME280;5069;49.306;8.636;2022-08-19T15:24:27;100004.97;;;30.04;33.32
10060;BME280;5069;49.306;8.636;2022-08-19T15:27:29;100005.19;;;30.17;33.11
10060;BME280;5069;49.306;8.636;2022-08-19T15:30:30;100007.97;;;30.09;32.84
10060;BME280;5069;49.306;8.636;2022-08-19T15:33:35;100007.63;;;30.12;33.16
10060;BME280;5069;49.306;8.636;2022-08-19T15:36:41;100015.38;;;30.00;33.22
10060;BME280;5069;49.306;8.636;2022-08-19T15:39:42;100020.03;;;29.91;33.82
10060;BME280;5069;49.306;8.636;2022-08-19T15:42:44;100024.09;;;29.95;33.64
10060;BME280;5069;49.306;8.636;2022-08-19T15:45:46;100020.53;;;29.95;32.54
10060;BME280;5069;49.306;8.636;2022-08-19T15:48:51;100021.47;;;29.79;32.41
10060;BME280;5069;49.306;8.636;2022-08-19T15:52:00;100014.44;;;29.70;32.94
10060;BME280;5069;49.306;8.636;2022-08-19T15:55:03;100019.72;;;29.49;33.72
10060;BME280;5069;49.306;8.636;2022-08-19T15:58:10;100020.38;;;29.51;33.86
10060;BME280;5069;49.306;8.636;2022-08-19T16:01:30;100020.38;;;29.51;34.13
10060;BME280;5069;49.306;8.636;2022-08-19T16:04:41;100029.63;;;29.42;34.46
10060;BME280;5069;49.306;8.636;2022-08-19T16:08:01;100022.69;;;29.39;34.19
10060;BME280;5069;49.306;8.636;2022-08-19T16:11:02;100017.47;;;29.30;34.73
10060;BME280;5069;49.306;8.636;2022-08-19T16:14:04;100026.78;;;29.35;34.60
10060;BME280;5069;49.306;8.636;2022-08-19T16:17:08;100013.59;;;29.24;34.47
10060;BME280;5069;49.306;8.636;2022-08-19T16:20:12;100015.91;;;29.58;34.29
10060;BME280;5069;49.306;8.636;2022-08-19T16:23:14;100014.59;;;29.54;34.82
10060;BME280;5069;49.306;8.636;2022-08-19T16:26:18;100016.44;;;29.39;34.33
10060;BME280;5069;49.306;8.636;2022-08-19T16:29:20;100016.63;;;29.52;34.49
10060;BME280;5069;49.306;8.636;2022-08-19T16:32:42;100013.38;;;29.56;34.28
10060;BME280;5069;49.306;8.636;2022-08-19T16:35:44;100012.66;;;29.40;34.83
10060;BME280;5069;49.306;8.636;2022-08-19T16:38:52;100014.00;;;29.44;34.86
10060;BME280;5069;49.306;8.636;2022-08-19T16:41:54;100022.81;;;29.46;35.10
10060;BME280;5069;49.306;8.636;2022-08-19T16:44:55;100024.25;;;29.34;35.16
10060;BME280;5069;49.306;8.636;2022-08-19T16:47:57;100017.16;;;29.25;35.53
10060;BME280;5069;49.306;8.636;2022-08-19T16:50:59;100023.06;;;29.36;35.37
10060;BME280;5069;49.306;8.636;2022-08-19T16:54:03;100023.28;;;29.27;35.43
10060;BME280;5069;49.306;8.636;2022-08-19T16:57:05;100020.78;;;29.17;35.33
10060;BME280;5069;49.306;8.636;2022-08-19T17:00:12;100021.06;;;29.22;35.81
10060;BME280;5069;49.306;8.636;2022-08-19T17:03:15;100029.00;;;29.09;35.77
10060;BME280;5069;49.306;8.636;2022-08-19T17:06:20;100027.47;;;29.06;35.89
10060;BME280;5069;49.306;8.636;2022-08-19T17:09:22;100027.84;;;29.03;36.11
10060;BME280;5069;49.306;8.636;2022-08-19T17:12:26;100033.59;;;29.00;36.08
10060;BME280;5069;49.306;8.636;2022-08-19T17:15:32;100038.06;;;28.93;36.29
10060;BME280;5069;49.306;8.636;2022-08-19T17:18:34;100036.38;;;28.92;36.54
10060;BME280;5069;49.306;8.636;2022-08-19T17:21:36;100034.69;;;28.91;36.04
10060;BME280;5069;49.306;8.636;2022-08-19T17:24:39;100031.88;;;29.07;36.15
10060;BME280;5069;49.306;8.636;2022-08-19T17:27:41;100042.50;;;28.86;36.26
10060;BME280;5069;49.306;8.636;2022-08-19T17:30:42;100041.16;;;28.82;36.85
10060;BME280;5069;49.306;8.636;2022-08-19T17:33:44;100037.66;;;28.73;37.00
10060;BME280;5069;49.306;8.636;2022-08-19T17:36:49;100044.59;;;28.68;36.73
10060;BME280;5069;49.306;8.636;2022-08-19T17:39:50;100047.84;;;28.63;36.98
10060;BME280;5069;49.306;8.636;2022-08-19T17:42:52;100047.84;;;28.63;37.14
10060;BME280;5069;49.306;8.636;2022-08-19T17:45:54;100054.13;;;28.64;37.28
10060;BME280;5069;49.306;8.636;2022-08-19T17:48:56;100055.13;;;28.63;37.09
10060;BME280;5069;49.306;8.636;2022-08-19T17:51:58;100043.59;;;28.61;37.59
10060;BME280;5069;49.306;8.636;2022-08-19T17:55:00;100044.97;;;28.57;37.54
10060;BME280;5069;49.306;8.636;2022-08-19T17:58:02;100046.00;;;28.56;37.22
10060;BME280;5069;49.306;8.636;2022-08-19T18:01:12;100045.84;;;28.49;37.47
10060;BME280;5069;49.306;8.636;2022-08-19T18:04:14;100040.28;;;28.43;37.81
10060;BME280;5069;49.306;8.636;2022-08-19T18:07:17;100047.06;;;28.47;37.58
10060;BME280;5069;49.306;8.636;2022-08-19T18:10:23;100052.19;;;28.33;38.07
10060;BME280;5069;49.306;8.636;2022-08-19T18:13:35;100060.31;;;28.33;38.15
10060;BME280;5069;49.306;8.636;2022-08-19T18:16:37;100068.44;;;28.42;38.09
10060;BME280;5069;49.306;8.636;2022-08-19T18:19:41;100066.75;;;28.32;38.30
10060;BME280;5069;49.306;8.636;2022-08-19T18:22:46;100070.09;;;28.43;38.26
10060;BME280;5069;49.306;8.636;2022-08-19T18:25:48;100073.50;;;28.45;38.65